sensor_id;sensor_type;location;lat;lon;timestamp;pressure;altitude;pressure_sealevel;temperature;humidity
63663;BME280;49815;51.618;0.336;2023-02-15T00:01:20;101961.14;;;1.46;48.62
63663;BME280;49815;51.618;0.336;2023-02-15T00:03:48;101955.96;;;2.04;48.50
63663;BME280;49815;51.618;0.336;2023-02-15T00:06:12;101953.61;;;1.76;48.50
63663;BME280;49815;51.618;0.336;2023-02-15T00:08:38;101952.73;;;1.92;48.89
63663;BME280;49815;51.618;0.336;2023-02-15T00:11:05;101949.30;;;1.96;48.48
63663;BME280;49815;51.618;0.336;2023-02-15T00:13:29;101946.60;;;1.80;48.47
63663;BME280;49815;51.618;0.336;2023-02-15T00:16:01;101943.98;;;1.72;48.53
63663;BME280;49815;51.618;0.336;2023-02-15T00:18:20;101944.52;;;1.70;48.64
63663;BME280;49815;51.618;0.336;2023-02-15T00:20:46;101939.68;;;1.74;48.78
63663;BME280;49815;51.618;0.336;2023-02-15T00:23:11;101945.06;;;1.84;48.58
63663;BME280;49815;51.618;0.336;2023-02-15T00:25:37;101946.14;;;1.80;48.78
63663;BME280;49815;51.618;0.336;2023-02-15T00:28:02;101942.03;;;1.88;48.25
63663;BME280;49815;51.618;0.336;2023-02-15T00:30:27;101937.95;;;1.85;48.65
63663;BME280;49815;51.618;0.336;2023-02-15T00:32:52;101931.47;;;2.17;48.28
63663;BME280;49815;51.618;0.336;2023-02-15T00:35:18;101933.58;;;2.12;47.75
63663;BME280;49815;51.618;0.336;2023-02-15T00:37:44;101926.98;;;2.25;47.84
63663;BME280;49815;51.618;0.336;2023-02-15T00:40:10;101921.84;;;2.10;48.39
63663;BME280;49815;51.618;0.336;2023-02-15T00:42:34;101923.21;;;1.95;48.03
63663;BME280;49815;51.618;0.336;2023-02-15T00:45:00;101917.91;;;1.88;48.55
63663;BME280;49815;51.618;0.336;2023-02-15T00:47:26;101917.67;;;1.88;48.26
63663;BME280;49815;51.618;0.336;2023-02-15T00:49:51;101915.09;;;1.60;48.34
63663;BME280;49815;51.618;0.336;2023-02-15T00:52:17;101908.32;;;1.54;48.46
63663;BME280;49815;51.618;0.336;2023-02-15T00:54:43;101904.46;;;1.81;47.77
63663;BME280;49815;51.618;0.336;2023-02-15T00:57:08;101903.50;;;1.51;48.32
63663;BME280;49815;51.618;0.336;2023-02-15T00:59:33;101896.14;;;1.85;47.31
63663;BME280;49815;51.618;0.336;2023-02-15T01:01:58;101894.31;;;1.43;48.29
63663;BME280;49815;51.618;0.336;2023-02-15T01:04:25;101890.47;;;1.92;48.41
63663;BME280;49815;51.618;0.336;2023-02-15T01:06:49;101888.71;;;1.59;48.27
63663;BME280;49815;51.618;0.336;2023-02-15T01:09:14;101885.00;;;1.65;48.58
63663;BME280;49815;51.618;0.336;2023-02-15T01:11:39;101881.73;;;2.05;47.91
63663;BME280;49815;51.618;0.336;2023-02-15T01:14:04;101878.65;;;1.44;48.05
63663;BME280;49815;51.618;0.336;2023-02-15T01:16:31;101876.76;;;1.72;48.49
63663;BME280;49815;51.618;0.336;2023-02-15T01:18:56;101876.24;;;1.66;48.45
63663;BME280;49815;51.618;0.336;2023-02-15T01:21:23;101875.37;;;1.98;48.16
63663;BME280;49815;51.618;0.336;2023-02-15T01:23:48;101878.06;;;1.35;48.84
63663;BME280;49815;51.618;0.336;2023-02-15T01:26:14;101877.55;;;1.63;48.24
63663;BME280;49815;51.618;0.336;2023-02-15T01:28:39;101875.50;;;1.31;48.77
63663;BME280;49815;51.618;0.336;2023-02-15T01:31:06;101869.52;;;1.77;48.40
63663;BME280;49815;51.618;0.336;2023-02-15T01:33:30;101862.95;;;1.43;48.41
63663;BME280;49815;51.618;0.336;2023-02-15T01:35:57;101865.91;;;2.10;48.29
63663;BME280;49815;51.618;0.336;2023-02-15T01:38:20;101862.64;;;2.34;47.84
63663;BME280;49815;51.618;0.336;2023-02-15T01:40:46;101862.01;;;2.01;48.08
63663;BME280;49815;51.618;0.336;2023-02-15T01:43:12;101865.14;;;2.38;48.04
63663;BME280;49815;51.618;0.336;2023-02-15T01:45:37;101856.52;;;2.28;48.04
63663;BME280;49815;51.618;0.336;2023-02-15T01:48:04;101849.01;;;2.24;48.26
63663;BME280;49815;51.618;0.336;2023-02-15T01:50:30;101842.16;;;1.79;48.06
63663;BME280;49815;51.618;0.336;2023-02-15T01:52:57;101840.70;;;2.33;47.88
63663;BME280;49815;51.618;0.336;2023-02-15T01:55:18;101834.03;;;2.34;48.11
63663;BME280;49815;51.618;0.336;2023-02-15T01:57:45;101832.33;;;2.30;48.30
63663;BME280;49815;51.618;0.336;2023-02-15T02:00:10;101836.28;;;2.37;47.95
63663;BME280;49815;51.618;0.336;2023-02-15T02:02:35;101832.26;;;2.17;47.85
63663;BME280;49815;51.618;0.336;2023-02-15T02:05:02;101825.25;;;2.50;47.71
63663;BME280;49815;51.618;0.336;2023-02-15T02:07:28;101826.85;;;2.23;48.18
63663;BME280;49815;51.618;0.336;2023-02-15T02:09:51;101821.23;;;2.24;48.15
63663;BME280;49815;51.618;0.336;2023-02-15T02:12:17;101813.48;;;2.37;48.14
63663;BME280;49815;51.618;0.336;2023-02-15T02:14:42;101809.15;;;2.28;48.16
63663;BME280;49815;51.618;0.336;2023-02-15T02:17:14;101806.48;;;2.17;47.85
63663;BME280;49815;51.618;0.336;2023-02-15T02:27:01;101797.68;;;2.55;48.17
63663;BME280;49815;51.618;0.336;2023-02-15T02:29:32;101797.14;;;2.00;48.38
63663;BME280;49815;51.618;0.336;2023-02-15T02:34:06;101786.90;;;2.39;48.55
63663;BME280;49815;51.618;0.336;2023-02-15T02:36:35;101780.37;;;2.76;48.62
63663;BME280;49815;51.618;0.336;2023-02-15T02:39:12;101775.07;;;2.41;48.20
63663;BME280;49815;51.618;0.336;2023-02-15T02:41:26;101767.26;;;2.49;48.73
63663;BME280;49815;51.618;0.336;2023-02-15T02:43:51;101762.76;;;2.70;48.12
63663;BME280;49815;51.618;0.336;2023-02-15T02:46:17;101769.45;;;2.46;48.56
63663;BME280;49815;51.618;0.336;2023-02-15T02:48:37;101765.95;;;2.47;48.28
63663;BME280;49815;51.618;0.336;2023-02-15T02:51:02;101763.56;;;2.08;48.47
63663;BME280;49815;51.618;0.336;2023-02-15T02:53:29;101760.03;;;2.50;48.59
63663;BME280;49815;51.618;0.336;2023-02-15T02:55:56;101763.64;;;2.32;48.63
63663;BME280;49815;51.618;0.336;2023-02-15T02:58:21;101760.23;;;2.19;48.57
63663;BME280;49815;51.618;0.336;2023-02-15T03:00:47;101757.18;;;2.35;48.30
63663;BME280;49815;51.618;0.336;2023-02-15T03:03:11;101748.04;;;2.29;48.65
63663;BME280;49815;51.618;0.336;2023-02-15T03:05:39;101744.95;;;2.55;48.54
63663;BME280;49815;51.618;0.336;2023-02-15T03:08:02;101744.71;;;1.97;48.83
63663;BME280;49815;51.618;0.336;2023-02-15T03:10:26;101743.08;;;2.18;49.01
63663;BME280;49815;51.618;0.336;2023-02-15T03:12:52;101742.15;;;2.08;49.24
63663;BME280;49815;51.618;0.336;2023-02-15T03:15:20;101740.75;;;2.30;49.27
63663;BME280;49815;51.618;0.336;2023-02-15T03:17:45;101740.35;;;1.99;50.63
63663;BME280;49815;51.618;0.336;2023-02-15T03:20:13;101734.17;;;2.12;51.59
63663;BME280;49815;51.618;0.336;2023-02-15T03:22:36;101728.73;;;2.33;50.97
63663;BME280;49815;51.618;0.336;2023-02-15T03:25:04;101733.22;;;2.26;51.48
63663;BME280;49815;51.618;0.336;2023-02-15T03:27:27;101728.46;;;2.19;51.77
63663;BME280;49815;51.618;0.336;2023-02-15T03:29:55;101731.94;;;2.16;50.78
63663;BME280;49815;51.618;0.336;2023-02-15T03:32:17;101725.62;;;2.30;50.36
63663;BME280;49815;51.618;0.336;2023-02-15T03:34:41;101726.03;;;2.14;51.21
63663;BME280;49815;51.618;0.336;2023-02-15T03:37:13;101722.98;;;2.18;51.36
63663;BME280;49815;51.618;0.336;2023-02-15T03:39:36;101718.35;;;2.02;51.15
63663;BME280;49815;51.618;0.336;2023-02-15T03:42:09;101712.08;;;2.17;50.48
63663;BME280;49815;51.618;0.336;2023-02-15T03:44:27;101714.73;;;2.10;50.68
63663;BME280;49815;51.618;0.336;2023-02-15T03:46:53;101710.63;;;1.99;50.81
63663;BME280;49815;51.618;0.336;2023-02-15T03:49:18;101711.67;;;2.01;50.86
63663;BME280;49815;51.618;0.336;2023-02-15T03:51:44;101710.12;;;2.05;50.23
63663;BME280;49815;51.618;0.336;2023-02-15T03:54:08;101706.69;;;2.08;50.41
63663;BME280;49815;51.618;0.336;2023-02-15T03:56:34;101701.00;;;2.19;49.71
63663;BME280;49815;51.618;0.336;2023-02-15T03:58:58;101702.75;;;1.71;50.00
63663;BME280;49815;51.618;0.336;2023-02-15T04:01:26;101696.68;;;2.01;50.76
63663;BME280;49815;51.618;0.336;2023-02-15T04:03:54;101701.88;;;2.25;50.35
63663;BME280;49815;51.618;0.336;2023-02-15T04:06:14;101696.60;;;2.14;51.26
63663;BME280;49815;51.618;0.336;2023-02-15T04:08:40;101697.51;;;2.11;51.76
63663;BME280;49815;51.618;0.336;2023-02-15T04:11:05;101698.11;;;2.32;51.54
63663;BME280;49815;51.618;0.336;2023-02-15T04:13:32;101694.32;;;1.83;51.01
63663;BME280;49815;51.618;0.336;2023-02-15T04:15:57;101694.47;;;2.07;51.10
63663;BME280;49815;51.618;0.336;2023-02-15T04:18:22;101695.98;;;1.95;51.03
63663;BME280;49815;51.618;0.336;2023-02-15T04:20:48;101693.18;;;1.97;50.61
63663;BME280;49815;51.618;0.336;2023-02-15T04:23:13;101692.75;;;1.57;51.05
63663;BME280;49815;51.618;0.336;2023-02-15T04:25:39;101686.35;;;1.99;51.53
63663;BME280;49815;51.618;0.336;2023-02-15T04:28:04;101685.81;;;1.92;51.68
63663;BME280;49815;51.618;0.336;2023-02-15T04:30:30;101685.11;;;1.64;51.39
63663;BME280;49815;51.618;0.336;2023-02-15T04:32:55;101685.38;;;1.62;51.00
63663;BME280;49815;51.618;0.336;2023-02-15T04:35:20;101682.94;;;1.85;50.78
63663;BME280;49815;51.618;0.336;2023-02-15T04:37:46;101677.79;;;1.94;50.62
63663;BME280;49815;51.618;0.336;2023-02-15T04:40:13;101678.06;;;2.16;50.60
63663;BME280;49815;51.618;0.336;2023-02-15T04:42:37;101679.48;;;2.00;51.13
63663;BME280;49815;51.618;0.336;2023-02-15T04:45:04;101680.65;;;2.01;50.28
63663;BME280;49815;51.618;0.336;2023-02-15T04:47:29;101677.71;;;2.05;51.14
63663;BME280;49815;51.618;0.336;2023-02-15T04:49:54;101674.52;;;1.72;50.88
63663;BME280;49815;51.618;0.336;2023-02-15T04:52:20;101670.75;;;1.78;51.14
63663;BME280;49815;51.618;0.336;2023-02-15T04:54:45;101667.28;;;2.10;51.00
63663;BME280;49815;51.618;0.336;2023-02-15T04:57:10;101660.53;;;2.44;50.89
63663;BME280;49815;51.618;0.336;2023-02-15T04:59:36;101662.43;;;2.33;51.20
63663;BME280;49815;51.618;0.336;2023-02-15T05:02:02;101658.39;;;2.31;50.89
63663;BME280;49815;51.618;0.336;2023-02-15T05:04:27;101656.81;;;2.55;51.94
63663;BME280;49815;51.618;0.336;2023-02-15T05:06:52;101657.17;;;2.41;51.63
63663;BME280;49815;51.618;0.336;2023-02-15T05:09:17;101654.23;;;2.56;51.70
63663;BME280;49815;51.618;0.336;2023-02-15T05:11:43;101648.59;;;2.48;51.67
63663;BME280;49815;51.618;0.336;2023-02-15T05:14:08;101648.53;;;2.72;52.00
63663;BME280;49815;51.618;0.336;2023-02-15T05:16:34;101649.34;;;2.28;51.78
63663;BME280;49815;51.618;0.336;2023-02-15T05:18:59;101650.56;;;2.82;51.61
63663;BME280;49815;51.618;0.336;2023-02-15T05:21:25;101648.96;;;2.61;51.34
63663;BME280;49815;51.618;0.336;2023-02-15T05:23:49;101650.94;;;2.67;50.87
63663;BME280;49815;51.618;0.336;2023-02-15T05:26:18;101646.83;;;2.69;51.16
63663;BME280;49815;51.618;0.336;2023-02-15T05:28:40;101646.36;;;2.85;51.05
63663;BME280;49815;51.618;0.336;2023-02-15T05:31:07;101644.40;;;2.71;50.52
63663;BME280;49815;51.618;0.336;2023-02-15T05:33:31;101642.17;;;3.06;50.16
63663;BME280;49815;51.618;0.336;2023-02-15T05:35:57;101640.47;;;2.57;50.86
63663;BME280;49815;51.618;0.336;2023-02-15T05:38:22;101634.28;;;2.84;50.92
63663;BME280;49815;51.618;0.336;2023-02-15T05:40:47;101629.16;;;2.95;50.61
63663;BME280;49815;51.618;0.336;2023-02-15T05:43:12;101626.45;;;3.37;50.75
63663;BME280;49815;51.618;0.336;2023-02-15T05:45:38;101630.13;;;3.34;50.35
63663;BME280;49815;51.618;0.336;2023-02-15T05:48:03;101632.20;;;2.73;50.19
63663;BME280;49815;51.618;0.336;2023-02-15T05:50:28;101634.25;;;2.93;50.48
63663;BME280;49815;51.618;0.336;2023-02-15T05:52:54;101631.49;;;2.77;50.14
63663;BME280;49815;51.618;0.336;2023-02-15T05:55:20;101627.86;;;2.96;50.65
63663;BME280;49815;51.618;0.336;2023-02-15T05:57:45;101628.80;;;2.74;50.48
63663;BME280;49815;51.618;0.336;2023-02-15T06:00:13;101626.45;;;2.82;50.21
63663;BME280;49815;51.618;0.336;2023-02-15T06:02:36;101622.40;;;2.91;50.20
63663;BME280;49815;51.618;0.336;2023-02-15T06:05:03;101622.04;;;3.14;50.31
63663;BME280;49815;51.618;0.336;2023-02-15T06:07:27;101622.17;;;3.63;50.23
63663;BME280;49815;51.618;0.336;2023-02-15T06:09:53;101620.88;;;3.05;50.18
63663;BME280;49815;51.618;0.336;2023-02-15T06:12:18;101617.43;;;3.32;50.13
63663;BME280;49815;51.618;0.336;2023-02-15T06:14:44;101617.13;;;3.10;49.50
63663;BME280;49815;51.618;0.336;2023-02-15T06:17:09;101620.97;;;2.92;49.87
63663;BME280;49815;51.618;0.336;2023-02-15T06:19:34;101625.77;;;2.92;49.84
63663;BME280;49815;51.618;0.336;2023-02-15T06:22:00;101624.16;;;3.00;49.78
63663;BME280;49815;51.618;0.336;2023-02-15T06:24:26;101620.81;;;3.16;49.72
63663;BME280;49815;51.618;0.336;2023-02-15T06:26:51;101620.90;;;2.94;49.80
63663;BME280;49815;51.618;0.336;2023-02-15T06:29:17;101618.73;;;2.83;49.84
63663;BME280;49815;51.618;0.336;2023-02-15T06:31:41;101623.21;;;2.56;49.80
63663;BME280;49815;51.618;0.336;2023-02-15T06:34:07;101620.93;;;2.49;49.53
63663;BME280;49815;51.618;0.336;2023-02-15T06:36:33;101622.00;;;2.48;49.68
63663;BME280;49815;51.618;0.336;2023-02-15T06:38:58;101623.31;;;2.52;49.50
63663;BME280;49815;51.618;0.336;2023-02-15T06:41:23;101622.42;;;2.83;49.68
63663;BME280;49815;51.618;0.336;2023-02-15T06:43:49;101618.23;;;2.58;49.69
63663;BME280;49815;51.618;0.336;2023-02-15T06:46:15;101618.53;;;2.30;49.59
63663;BME280;49815;51.618;0.336;2023-02-15T06:48:40;101616.84;;;2.84;49.65
63663;BME280;49815;51.618;0.336;2023-02-15T06:51:05;101619.95;;;2.77;49.91
63663;BME280;49815;51.618;0.336;2023-02-15T06:53:31;101621.04;;;2.90;49.95
63663;BME280;49815;51.618;0.336;2023-02-15T06:56:00;101621.65;;;2.83;49.85
63663;BME280;49815;51.618;0.336;2023-02-15T06:58:21;101624.09;;;2.87;49.48
63663;BME280;49815;51.618;0.336;2023-02-15T07:00:47;101622.36;;;2.84;49.49
63663;BME280;49815;51.618;0.336;2023-02-15T07:03:13;101624.41;;;2.98;49.31
63663;BME280;49815;51.618;0.336;2023-02-15T07:05:38;101623.15;;;2.65;49.47
63663;BME280;49815;51.618;0.336;2023-02-15T07:08:03;101621.82;;;2.52;49.34
63663;BME280;49815;51.618;0.336;2023-02-15T07:10:28;101621.92;;;2.79;49.47
63663;BME280;49815;51.618;0.336;2023-02-15T07:12:53;101625.04;;;2.61;49.31
63663;BME280;49815;51.618;0.336;2023-02-15T07:15:19;101626.39;;;2.91;49.19
63663;BME280;49815;51.618;0.336;2023-02-15T07:17:44;101625.26;;;2.77;49.16
63663;BME280;49815;51.618;0.336;2023-02-15T07:20:11;101622.39;;;2.78;49.11
63663;BME280;49815;51.618;0.336;2023-02-15T07:22:34;101621.15;;;2.61;49.40
63663;BME280;49815;51.618;0.336;2023-02-15T07:24:59;101624.10;;;2.30;49.04
63663;BME280;49815;51.618;0.336;2023-02-15T07:27:25;101627.72;;;2.70;49.10
63663;BME280;49815;51.618;0.336;2023-02-15T07:29:50;101628.21;;;2.51;49.11
63663;BME280;49815;51.618;0.336;2023-02-15T07:32:16;101626.23;;;2.94;48.72
63663;BME280;49815;51.618;0.336;2023-02-15T07:34:42;101628.50;;;2.38;49.03
63663;BME280;49815;51.618;0.336;2023-02-15T07:37:07;101628.71;;;2.45;48.99
63663;BME280;49815;51.618;0.336;2023-02-15T07:39:32;101630.96;;;2.58;49.37
63663;BME280;49815;51.618;0.336;2023-02-15T07:42:00;101635.79;;;2.87;49.86
63663;BME280;49815;51.618;0.336;2023-02-15T07:44:24;101635.28;;;3.02;50.53
63663;BME280;49815;51.618;0.336;2023-02-15T07:46:50;101631.38;;;2.97;50.16
63663;BME280;49815;51.618;0.336;2023-02-15T07:49:15;101630.22;;;2.94;49.38
63663;BME280;49815;51.618;0.336;2023-02-15T07:51:40;101624.59;;;3.41;49.65
63663;BME280;49815;51.618;0.336;2023-02-15T07:54:07;101622.06;;;2.84;49.69
63663;BME280;49815;51.618;0.336;2023-02-15T07:56:32;101619.14;;;3.07;49.15
63663;BME280;49815;51.618;0.336;2023-02-15T07:58:58;101619.36;;;3.41;49.16
63663;BME280;49815;51.618;0.336;2023-02-15T08:01:25;101623.13;;;3.18;49.34
63663;BME280;49815;51.618;0.336;2023-02-15T08:03:49;101623.56;;;3.45;49.29
63663;BME280;49815;51.618;0.336;2023-02-15T08:06:15;101624.12;;;3.73;48.79
63663;BME280;49815;51.618;0.336;2023-02-15T08:08:40;101625.16;;;3.61;48.38
63663;BME280;49815;51.618;0.336;2023-02-15T08:11:07;101624.86;;;3.73;48.56
63663;BME280;49815;51.618;0.336;2023-02-15T08:13:31;101621.33;;;4.39;48.16
63663;BME280;49815;51.618;0.336;2023-02-15T08:15:56;101622.11;;;4.08;48.04
63663;BME280;49815;51.618;0.336;2023-02-15T08:18:21;101623.42;;;4.39;48.49
63663;BME280;49815;51.618;0.336;2023-02-15T08:20:49;101629.80;;;4.74;48.77
63663;BME280;49815;51.618;0.336;2023-02-15T08:23:12;101632.35;;;4.91;48.81
63663;BME280;49815;51.618;0.336;2023-02-15T08:25:38;101637.91;;;4.85;48.67
63663;BME280;49815;51.618;0.336;2023-02-15T08:28:04;101636.42;;;4.83;49.32
63663;BME280;49815;51.618;0.336;2023-02-15T08:30:29;101640.13;;;4.91;49.19
63663;BME280;49815;51.618;0.336;2023-02-15T08:32:54;101637.70;;;5.06;49.44
63663;BME280;49815;51.618;0.336;2023-02-15T08:35:20;101638.63;;;5.12;50.23
63663;BME280;49815;51.618;0.336;2023-02-15T08:37:45;101639.08;;;5.18;50.21
63663;BME280;49815;51.618;0.336;2023-02-15T08:40:11;101638.28;;;5.24;50.54
63663;BME280;49815;51.618;0.336;2023-02-15T08:42:36;101638.47;;;5.41;50.50
63663;BME280;49815;51.618;0.336;2023-02-15T08:45:01;101634.99;;;5.73;50.45
63663;BME280;49815;51.618;0.336;2023-02-15T08:47:27;101631.53;;;5.79;50.48
63663;BME280;49815;51.618;0.336;2023-02-15T08:49:52;101632.64;;;5.67;51.18
63663;BME280;49815;51.618;0.336;2023-02-15T08:52:17;101623.22;;;6.04;50.53
63663;BME280;49815;51.618;0.336;2023-02-15T08:54:42;101622.76;;;5.98;50.36
63663;BME280;49815;51.618;0.336;2023-02-15T08:57:08;101620.12;;;6.21;50.36
63663;BME280;49815;51.618;0.336;2023-02-15T08:59:33;101618.53;;;6.28;50.45
63663;BME280;49815;51.618;0.336;2023-02-15T09:01:58;101618.26;;;6.52;50.04
63663;BME280;49815;51.618;0.336;2023-02-15T09:04:24;101615.06;;;6.49;50.18
63663;BME280;49815;51.618;0.336;2023-02-15T09:06:50;101612.94;;;6.44;50.47
63663;BME280;49815;51.618;0.336;2023-02-15T09:09:16;101612.03;;;6.27;50.51
63663;BME280;49815;51.618;0.336;2023-02-15T09:11:42;101607.23;;;6.37;50.49
63663;BME280;49815;51.618;0.336;2023-02-15T09:14:08;101602.83;;;6.57;50.34
63663;BME280;49815;51.618;0.336;2023-02-15T09:16:33;101600.50;;;6.52;50.49
63663;BME280;49815;51.618;0.336;2023-02-15T09:18:57;101602.53;;;6.39;50.66
63663;BME280;49815;51.618;0.336;2023-02-15T09:21:23;101599.70;;;6.43;50.37
63663;BME280;49815;51.618;0.336;2023-02-15T09:23:49;101598.48;;;6.84;49.90
63663;BME280;49815;51.618;0.336;2023-02-15T09:26:14;101600.80;;;7.01;49.62
63663;BME280;49815;51.618;0.336;2023-02-15T09:28:39;101601.06;;;7.12;49.36
63663;BME280;49815;51.618;0.336;2023-02-15T09:31:07;101602.72;;;7.82;48.88
63663;BME280;49815;51.618;0.336;2023-02-15T09:33:29;101604.01;;;8.29;48.72
63663;BME280;49815;51.618;0.336;2023-02-15T09:35:55;101606.44;;;8.67;48.07
63663;BME280;49815;51.618;0.336;2023-02-15T09:38:21;101608.84;;;8.56;47.47
63663;BME280;49815;51.618;0.336;2023-02-15T09:40:52;101614.78;;;9.03;47.32
63663;BME280;49815;51.618;0.336;2023-02-15T09:43:22;101612.23;;;9.45;46.68
63663;BME280;49815;51.618;0.336;2023-02-15T09:45:50;101608.85;;;9.20;46.02
63663;BME280;49815;51.618;0.336;2023-02-15T09:48:17;101608.39;;;9.30;45.80
63663;BME280;49815;51.618;0.336;2023-02-15T09:50:32;101604.91;;;9.83;45.37
63663;BME280;49815;51.618;0.336;2023-02-15T09:53:05;101606.14;;;9.20;45.06
63663;BME280;49815;51.618;0.336;2023-02-15T09:55:31;101612.60;;;9.67;45.37
63663;BME280;49815;51.618;0.336;2023-02-15T09:57:48;101611.67;;;9.53;45.60
63663;BME280;49815;51.618;0.336;2023-02-15T10:00:16;101607.93;;;10.12;45.18
63663;BME280;49815;51.618;0.336;2023-02-15T10:02:46;101606.22;;;9.88;45.02
63663;BME280;49815;51.618;0.336;2023-02-15T10:05:11;101604.46;;;9.95;44.89
63663;BME280;49815;51.618;0.336;2023-02-15T10:07:39;101601.79;;;10.12;45.12
63663;BME280;49815;51.618;0.336;2023-02-15T10:10:01;101607.02;;;10.20;44.77
63663;BME280;49815;51.618;0.336;2023-02-15T10:12:29;101605.28;;;10.23;44.44
63663;BME280;49815;51.618;0.336;2023-02-15T10:14:55;101609.91;;;10.26;44.54
63663;BME280;49815;51.618;0.336;2023-02-15T10:17:18;101601.72;;;10.41;44.24
63663;BME280;49815;51.618;0.336;2023-02-15T10:19:37;101600.85;;;10.56;44.57
63663;BME280;49815;51.618;0.336;2023-02-15T10:22:07;101599.60;;;11.15;43.95
63663;BME280;49815;51.618;0.336;2023-02-15T10:24:41;101593.77;;;10.70;44.13
63663;BME280;49815;51.618;0.336;2023-02-15T10:26:49;101593.96;;;10.75;44.02
63663;BME280;49815;51.618;0.336;2023-02-15T10:29:23;101590.39;;;11.08;43.92
63663;BME280;49815;51.618;0.336;2023-02-15T10:31:45;101593.22;;;10.80;44.00
63663;BME280;49815;51.618;0.336;2023-02-15T10:34:15;101592.23;;;11.13;43.51
63663;BME280;49815;51.618;0.336;2023-02-15T10:36:38;101589.75;;;11.07;43.72
63663;BME280;49815;51.618;0.336;2023-02-15T10:39:00;101586.55;;;11.43;43.50
63663;BME280;49815;51.618;0.336;2023-02-15T10:41:31;101591.66;;;11.56;42.97
63663;BME280;49815;51.618;0.336;2023-02-15T10:43:59;101585.51;;;11.71;42.14
63663;BME280;49815;51.618;0.336;2023-02-15T10:46:16;101581.71;;;11.53;42.55
63663;BME280;49815;51.618;0.336;2023-02-15T10:48:50;101570.22;;;11.95;42.06
63663;BME280;49815;51.618;0.336;2023-02-15T10:51:04;101569.60;;;12.02;41.79
63663;BME280;49815;51.618;0.336;2023-02-15T10:53:43;101568.93;;;12.01;42.06
63663;BME280;49815;51.618;0.336;2023-02-15T10:55:58;101567.21;;;12.15;41.79
63663;BME280;49815;51.618;0.336;2023-02-15T10:58:28;101569.49;;;12.11;41.74
63663;BME280;49815;51.618;0.336;2023-02-15T11:00:46;101570.74;;;11.82;42.24
63663;BME280;49815;51.618;0.336;2023-02-15T11:03:30;101571.70;;;12.05;42.12
63663;BME280;49815;51.618;0.336;2023-02-15T11:05:44;101572.27;;;11.38;42.55
63663;BME280;49815;51.618;0.336;2023-02-15T11:08:03;101572.45;;;11.80;43.15
63663;BME280;49815;51.618;0.336;2023-02-15T11:10:30;101570.32;;;11.88;43.22
63663;BME280;49815;51.618;0.336;2023-02-15T11:12:51;101572.36;;;11.67;43.57
63663;BME280;49815;51.618;0.336;2023-02-15T11:15:20;101568.29;;;11.83;43.47
63663;BME280;49815;51.618;0.336;2023-02-15T11:17:46;101565.43;;;11.39;43.28
63663;BME280;49815;51.618;0.336;2023-02-15T11:20:16;101559.75;;;11.86;43.58
63663;BME280;49815;51.618;0.336;2023-02-15T11:22:33;101561.57;;;11.83;43.44
63663;BME280;49815;51.618;0.336;2023-02-15T11:24:59;101560.59;;;11.59;43.71
63663;BME280;49815;51.618;0.336;2023-02-15T11:27:26;101554.23;;;11.64;42.94
63663;BME280;49815;51.618;0.336;2023-02-15T11:29:56;101559.13;;;11.43;43.05
63663;BME280;49815;51.618;0.336;2023-02-15T11:32:19;101553.34;;;11.41;42.59
63663;BME280;49815;51.618;0.336;2023-02-15T11:34:47;101551.50;;;11.91;42.52
63663;BME280;49815;51.618;0.336;2023-02-15T11:37:10;101541.77;;;12.05;42.05
63663;BME280;49815;51.618;0.336;2023-02-15T11:39:31;101535.96;;;12.04;41.63
63663;BME280;49815;51.618;0.336;2023-02-15T11:41:59;101525.56;;;12.42;41.28
63663;BME280;49815;51.618;0.336;2023-02-15T11:44:24;101524.82;;;12.00;41.48
63663;BME280;49815;51.618;0.336;2023-02-15T11:46:46;101519.97;;;11.79;41.31
63663;BME280;49815;51.618;0.336;2023-02-15T11:49:21;101514.83;;;11.78;41.51
63663;BME280;49815;51.618;0.336;2023-02-15T11:51:37;101512.14;;;11.93;41.18
63663;BME280;49815;51.618;0.336;2023-02-15T11:54:03;101512.05;;;11.91;42.02
63663;BME280;49815;51.618;0.336;2023-02-15T11:56:31;101506.80;;;11.99;41.37
63663;BME280;49815;51.618;0.336;2023-02-15T11:58:58;101504.03;;;11.98;41.52
63663;BME280;49815;51.618;0.336;2023-02-15T12:01:23;101502.18;;;12.00;41.16
63663;BME280;49815;51.618;0.336;2023-02-15T12:03:47;101497.47;;;11.97;41.27
63663;BME280;49815;51.618;0.336;2023-02-15T12:06:16;101493.24;;;12.35;40.78
63663;BME280;49815;51.618;0.336;2023-02-15T12:08:38;101490.43;;;12.79;40.81
63663;BME280;49815;51.618;0.336;2023-02-15T12:11:07;101488.60;;;12.22;40.67
63663;BME280;49815;51.618;0.336;2023-02-15T12:13:26;101481.78;;;12.10;40.46
63663;BME280;49815;51.618;0.336;2023-02-15T12:15:54;101475.13;;;12.14;40.32
63663;BME280;49815;51.618;0.336;2023-02-15T12:18:24;101471.72;;;12.82;40.26
63663;BME280;49815;51.618;0.336;2023-02-15T12:20:42;101475.19;;;12.56;39.76
63663;BME280;49815;51.618;0.336;2023-02-15T12:23:12;101476.98;;;12.99;38.91
63663;BME280;49815;51.618;0.336;2023-02-15T12:25:36;101474.90;;;12.92;38.65
63663;BME280;49815;51.618;0.336;2023-02-15T12:27:58;101472.22;;;12.72;38.64
63663;BME280;49815;51.618;0.336;2023-02-15T12:30:29;101475.49;;;13.41;38.33
63663;BME280;49815;51.618;0.336;2023-02-15T12:32:51;101469.99;;;13.33;37.97
63663;BME280;49815;51.618;0.336;2023-02-15T12:35:21;101473.48;;;13.13;37.88
63663;BME280;49815;51.618;0.336;2023-02-15T12:44:59;101469.43;;;13.17;37.73
63663;BME280;49815;51.618;0.336;2023-02-15T12:47:22;101467.43;;;13.59;37.82
63663;BME280;49815;51.618;0.336;2023-02-15T12:54:39;101463.27;;;13.90;37.54
63663;BME280;49815;51.618;0.336;2023-02-15T12:57:14;101466.74;;;13.83;37.19
63663;BME280;49815;51.618;0.336;2023-02-15T12:59:28;101457.07;;;13.75;37.26
63663;BME280;49815;51.618;0.336;2023-02-15T13:01:53;101445.84;;;13.93;37.29
63663;BME280;49815;51.618;0.336;2023-02-15T13:04:22;101442.23;;;14.07;37.03
63663;BME280;49815;51.618;0.336;2023-02-15T13:06:49;101439.98;;;13.93;36.83
63663;BME280;49815;51.618;0.336;2023-02-15T13:09:15;101436.03;;;13.89;37.05